Mae Sariang, Thailand
Current Conditions -  °F | °C
As of 6:00 AM on Monday 22 Dec 2014 (Local Time) from VTCC Reporting Station
Few Clouds Few Clouds  
Wind Chill: 63°   Ceiling: Unl
Heat Index: 63°   Visibility: 6mi
Dew Point: 55°   Wind: 5mph
Humidity: 77%   Direction: 250°WSW
Pressure: 30.06"   Gusts: NA
Location:  18.15°N, 97.93°E
Report Text: VTCC 212300Z 25004KT 9999 FEW040 17/13 Q1018 A3008 NOSIG
Loading
Personal Weather Stations






























Interactive Weather Map New forecast layout! Learn more

10-Day Weather Forecast

Advertisements
Track Severe Weather on mobile